Time;durP1;ratioP1;P1;durP2;ratioP2;P2;SDS_P1;SDS_P2;PMS_P1;PMS_P2;Temp;Humidity;BMP_temperature;BMP_pressure;BME280_temperature;BME280_humidity;BME280_pressure;Samples;Min_cycle;Max_cycle;Signal;HPM_P1;HPM_P2
2022/08/05 00:01:57;;;;;;;9.88;5.35;;;;;;;20.65;77.31;101347.63;5094666;28;20472;-68
2022/08/05 00:04:22;;;;;;;8.77;5.15;;;;;;;20.62;77.59;101347.94;5075671;28;20048;-68
2022/08/05 00:06:48;;;;;;;8.45;4.88;;;;;;;20.61;78.17;101349.75;5093283;28;20046;-67
2022/08/05 00:09:14;;;;;;;11.75;5.43;;;;;;;20.65;78.87;101344.94;5091904;28;20035;-68
2022/08/05 00:11:39;;;;;;;8.27;5.60;;;;;;;20.39;78.78;101348.28;5091427;28;20441;-67
2022/08/05 00:14:05;;;;;;;10.88;5.75;;;;;;;20.58;78.07;101347.34;5092739;28;20380;-68
2022/08/05 00:16:30;;;;;;;7.38;5.22;;;;;;;20.42;78.11;101347.97;5091820;28;20775;-68
2022/08/05 00:18:56;;;;;;;12.27;6.18;;;;;;;20.30;79.40;101362.69;5092436;28;20095;-68
2022/08/05 00:21:22;;;;;;;7.95;5.97;;;;;;;20.19;80.46;101350.19;5092616;28;20027;-68
2022/08/05 00:23:48;;;;;;;13.02;6.38;;;;;;;20.14;80.47;101338.97;5093728;28;20085;-68
2022/08/05 00:26:15;;;;;;;8.18;5.70;;;;;;;20.35;79.41;101349.59;5096209;28;20028;-68
2022/08/05 00:28:40;;;;;;;9.40;6.43;;;;;;;20.33;79.79;101353.44;5092277;28;20028;-68
2022/08/05 00:31:06;;;;;;;9.38;6.00;;;;;;;20.50;78.49;101354.47;5094189;28;20043;-68
2022/08/05 00:33:32;;;;;;;10.20;6.18;;;;;;;20.54;78.46;101361.34;5093443;28;20055;-68
2022/08/05 00:35:58;;;;;;;9.45;5.97;;;;;;;20.50;80.04;101360.75;5091827;28;20028;-68
2022/08/05 00:38:24;;;;;;;9.05;6.38;;;;;;;20.38;80.34;101365.50;5090185;28;20436;-68
2022/08/05 00:40:52;;;;;;;9.25;5.95;;;;;;;20.35;80.15;101367.63;5093719;28;20049;-68
2022/08/05 00:43:17;;;;;;;10.52;6.32;;;;;;;20.33;80.37;101367.78;5094769;28;20369;-68
2022/08/05 00:45:43;;;;;;;12.25;6.38;;;;;;;20.40;80.53;101359.94;5091640;28;20135;-68
2022/08/05 00:48:16;;;;;;;9.70;6.50;;;;;;;20.52;79.61;101349.78;5092421;28;20089;-68
2022/08/05 00:50:44;;;;;;;16.35;7.00;;;;;;;20.53;79.01;101348.81;5092682;28;20036;-67
2022/08/05 00:53:11;;;;;;;11.88;6.93;;;;;;;20.55;78.90;101336.84;5093714;28;20027;-68
2022/08/05 00:55:36;;;;;;;8.80;5.90;;;;;;;20.40;79.89;101355.38;5093865;28;20023;-68
2022/08/05 00:58:02;;;;;;;8.85;6.60;;;;;;;20.20;80.19;101354.59;5092036;28;20039;-67
2022/08/05 01:00:29;;;;;;;9.02;6.30;;;;;;;20.30;79.69;101341.06;5092102;28;20043;-67
2022/08/05 01:02:55;;;;;;;8.77;6.40;;;;;;;20.18;81.03;101356.59;5092294;28;20024;-67
2022/08/05 01:05:24;;;;;;;11.23;7.05;;;;;;;20.01;81.69;101348.41;5091835;28;20684;-68
2022/08/05 01:07:52;;;;;;;9.68;6.80;;;;;;;19.86;81.44;101350.72;5091449;28;20024;-67
2022/08/05 01:10:29;;;;;;;8.80;6.30;;;;;;;19.83;81.76;101368.06;5088726;28;20534;-68
2022/08/05 01:13:02;;;;;;;11.13;7.37;;;;;;;19.86;81.91;101375.84;5091771;28;20027;-67
2022/08/05 01:15:38;;;;;;;9.30;6.47;;;;;;;19.92;82.41;101396.03;5092363;28;20027;-67
2022/08/05 01:18:08;;;;;;;14.48;6.50;;;;;;;19.98;82.32;101416.22;5092866;28;20035;-67
2022/08/05 01:21:06;;;;;;;9.27;6.05;;;;;;;20.09;80.73;101418.72;5094798;28;20103;-67
2022/08/05 01:24:10;;;;;;;13.55;6.03;;;;;;;20.18;80.66;101439.50;5093886;28;20027;-68
2022/08/05 01:27:13;;;;;;;13.23;6.22;;;;;;;20.24;81.00;101438.91;5088373;28;20032;-67
2022/08/05 01:29:45;;;;;;;10.85;5.32;;;;;;;20.17;80.83;101419.69;5091211;28;20549;-68
2022/08/05 01:32:17;;;;;;;12.98;5.22;;;;;;;20.31;80.07;101418.41;5089752;28;20024;-67
2022/08/05 01:34:48;;;;;;;11.18;5.15;;;;;;;20.28;80.62;101417.84;5092830;28;20026;-67
2022/08/05 01:37:18;;;;;;;12.77;5.45;;;;;;;20.17;80.74;101403.50;5093492;28;20035;-67
2022/08/05 01:39:46;;;;;;;9.02;5.28;;;;;;;20.20;81.09;101414.00;5091190;28;20478;-67
2022/08/05 01:42:17;;;;;;;12.52;5.65;;;;;;;20.18;81.30;101415.19;5091512;28;20067;-68
2022/08/05 01:44:46;;;;;;;8.93;5.20;;;;;;;20.20;81.48;101418.56;5093067;28;20506;-67
2022/08/05 01:47:18;;;;;;;11.00;5.22;;;;;;;20.12;81.89;101437.38;5091331;28;20103;-67
2022/08/05 01:49:46;;;;;;;10.95;5.05;;;;;;;20.21;81.25;101423.00;5094661;28;20069;-67
2022/08/05 01:52:13;;;;;;;7.28;4.68;;;;;;;20.25;81.61;101421.69;5091605;28;20080;-67
2022/08/05 01:54:45;;;;;;;10.82;5.18;;;;;;;20.17;81.18;101410.75;5090584;28;20616;-67
2022/08/05 01:57:12;;;;;;;9.05;4.47;;;;;;;20.23;81.07;101410.16;5092825;28;20051;-67
2022/08/05 01:59:40;;;;;;;9.50;5.65;;;;;;;20.25;81.08;101391.13;5091385;28;20013;-67
2022/08/05 02:02:09;;;;;;;10.38;5.38;;;;;;;20.25;80.48;101373.06;5089901;28;20110;-67
2022/08/05 02:04:41;;;;;;;8.98;5.55;;;;;;;20.29;80.13;101363.66;5092158;28;20082;-67
2022/08/05 02:07:09;;;;;;;10.75;5.18;;;;;;;20.36;79.32;101345.03;5089743;28;20075;-67
2022/08/05 02:09:35;;;;;;;8.95;4.90;;;;;;;20.29;79.65;101336.63;5091143;28;20036;-67
2022/08/05 02:12:04;;;;;;;13.00;5.20;;;;;;;20.23;78.81;101348.03;5091001;28;20115;-67
2022/08/05 02:14:41;;;;;;;10.65;5.25;;;;;;;20.25;78.38;101351.44;5091465;28;20073;-67
2022/08/05 02:17:11;;;;;;;9.80;5.18;;;;;;;20.00;79.63;101392.59;5091266;28;20015;-67
2022/08/05 02:19:42;;;;;;;10.20;4.95;;;;;;;20.05;79.62;101395.72;5092017;28;20134;-67
2022/08/05 02:22:16;;;;;;;13.00;5.00;;;;;;;20.10;78.80;101351.06;5092948;28;20034;-67
2022/08/05 02:24:50;;;;;;;14.25;5.63;;;;;;;20.12;79.32;101357.19;5090051;28;20456;-67
2022/08/05 02:27:18;;;;;;;9.57;5.13;;;;;;;20.01;79.91;101384.34;5096485;28;20096;-67
2022/08/05 02:29:46;;;;;;;10.85;5.03;;;;;;;20.15;78.64;101392.00;5090092;28;20387;-67
2022/08/05 02:32:16;;;;;;;11.13;5.47;;;;;;;19.96;80.00;101397.44;5090443;28;20081;-67
2022/08/05 02:34:42;;;;;;;12.18;5.32;;;;;;;20.03;80.15;101408.50;5089322;28;20027;-67
2022/08/05 02:37:09;;;;;;;11.15;5.88;;;;;;;20.07;80.74;101405.38;5091636;28;20015;-67
2022/08/05 02:39:37;;;;;;;16.40;5.15;;;;;;;20.11;79.77;101408.63;5090801;28;20024;-67
2022/08/05 02:42:04;;;;;;;8.98;5.20;;;;;;;20.12;79.73;101413.91;5090521;28;20111;-67
2022/08/05 02:44:32;;;;;;;11.25;5.72;;;;;;;20.09;79.50;101391.72;5092100;28;20032;-67
2022/08/05 02:46:58;;;;;;;12.30;5.07;;;;;;;20.16;78.00;101382.91;5092408;28;20031;-67
2022/08/05 02:49:26;;;;;;;13.02;5.25;;;;;;;20.11;77.76;101379.78;5089664;28;20525;-67
2022/08/05 02:51:52;;;;;;;14.48;5.20;;;;;;;20.09;77.80;101380.91;5090693;28;20100;-67
2022/08/05 02:54:20;;;;;;;9.07;4.93;;;;;;;20.17;78.04;101373.78;5091991;28;20028;-67
2022/08/05 02:56:47;;;;;;;11.70;5.15;;;;;;;20.10;77.71;101369.13;5088257;28;20430;-67
2022/08/05 02:59:17;;;;;;;13.18;5.43;;;;;;;20.00;79.05;101381.78;5091990;28;20093;-67
2022/08/05 03:01:44;;;;;;;10.80;5.40;;;;;;;19.93;78.73;101376.13;5089905;28;20089;-67
2022/08/05 03:04:14;;;;;;;11.38;5.80;;;;;;;19.99;78.74;101366.59;5091515;28;20090;-67
2022/08/05 03:06:40;;;;;;;11.65;5.25;;;;;;;20.01;78.57;101370.00;5088165;28;20456;-67
2022/08/05 03:09:06;;;;;;;10.50;5.00;;;;;;;19.97;78.26;101366.72;5088807;28;20060;-67
2022/08/05 03:11:34;;;;;;;10.05;5.68;;;;;;;20.01;77.85;101370.84;5088938;28;20028;-67
2022/08/05 03:14:00;;;;;;;13.13;5.57;;;;;;;19.90;78.38;101384.50;5097342;28;20023;-67
2022/08/05 03:16:26;;;;;;;12.80;5.65;;;;;;;19.80;79.17;101383.69;5097640;28;20498;-67
2022/08/05 03:18:51;;;;;;;17.40;6.10;;;;;;;19.70;79.46;101391.78;5095970;28;20059;-67
2022/08/05 03:21:17;;;;;;;13.75;6.30;;;;;;;19.58;80.57;101399.13;5079252;28;20035;-67
2022/08/05 03:23:43;;;;;;;12.20;6.20;;;;;;;19.49;80.49;101391.88;5062694;28;20496;-67
2022/08/05 03:26:12;;;;;;;14.88;6.32;;;;;;;19.67;79.70;101405.56;5096547;28;20391;-67
2022/08/05 03:28:39;;;;;;;11.05;5.43;;;;;;;19.63;80.79;101412.22;5098281;28;20051;-67
2022/08/05 03:31:06;;;;;;;12.60;5.63;;;;;;;19.60;80.50;101401.69;5099915;28;20059;-67
2022/08/05 03:33:32;;;;;;;13.70;6.22;;;;;;;19.59;80.27;101405.38;5096223;28;20482;-67
2022/08/05 03:35:58;;;;;;;9.48;5.72;;;;;;;19.61;80.33;101408.78;5097036;28;20039;-67
2022/08/05 03:38:25;;;;;;;15.68;6.38;;;;;;;19.57;80.57;101401.97;5097075;28;20024;-67
2022/08/05 03:40:52;;;;;;;13.07;5.60;;;;;;;19.63;80.58;101413.06;5096555;28;20020;-67
2022/08/05 03:43:23;;;;;;;11.23;5.43;;;;;;;19.51;81.23;101409.66;5098184;28;20120;-67
2022/08/05 03:45:49;;;;;;;15.70;6.05;;;;;;;19.44;81.20;101402.25;5103730;27;20035;-67
2022/08/05 03:48:14;;;;;;;13.50;5.70;;;;;;;19.32;81.13;101406.06;5096253;28;20047;-67
2022/08/05 03:50:43;;;;;;;11.07;5.35;;;;;;;19.38;81.36;101408.19;5096219;28;20499;-67
2022/08/05 03:53:14;;;;;;;13.83;5.83;;;;;;;19.43;81.40;101405.94;5098530;28;20039;-67
2022/08/05 03:55:53;;;;;;;11.27;6.00;;;;;;;19.49;80.97;101391.88;5092947;28;20395;-67
2022/08/05 03:58:21;;;;;;;;;;;;;;;19.65;80.11;101389.53;5095744;28;20147;-67
2022/08/05 04:00:48;;;;;;;10.00;5.80;;;;;;;19.52;80.97;101389.75;5096825;28;19923;-67
2022/08/05 04:03:16;;;;;;;10.23;6.28;;;;;;;19.48;80.86;101382.94;5098068;28;20387;-67
2022/08/05 04:05:43;;;;;;;11.63;5.97;;;;;;;19.57;81.11;101383.09;5095518;28;20039;-67
2022/08/05 04:08:10;;;;;;;12.00;5.78;;;;;;;19.54;81.26;101392.31;5130005;27;20072;-67
2022/08/05 04:10:36;;;;;;;11.43;5.85;;;;;;;19.65;80.38;101378.72;5095095;28;20099;-67
2022/08/05 04:13:02;;;;;;;14.23;6.55;;;;;;;19.52;80.18;101362.78;5098666;28;20031;-67
2022/08/05 04:15:28;;;;;;;10.32;6.35;;;;;;;19.47;80.62;101388.47;5097539;27;20028;-67
2022/08/05 04:17:57;;;;;;;9.75;6.07;;;;;;;19.34;81.38;101377.13;5096785;28;20039;-67
2022/08/05 04:20:26;;;;;;;8.40;5.75;;;;;;;19.41;80.76;101383.63;5104920;27;20173;-67
2022/08/05 04:22:51;;;;;;;9.82;5.80;;;;;;;19.36;80.84;101384.09;5098080;28;20064;-67
2022/08/05 04:25:17;;;;;;;11.13;6.20;;;;;;;19.42;80.67;101379.97;5092139;28;20226;-67
2022/08/05 04:27:42;;;;;;;11.57;6.00;;;;;;;19.38;80.40;101381.22;5078093;28;20081;-67
2022/08/05 04:30:08;;;;;;;13.68;6.43;;;;;;;19.36;80.33;101364.34;5090145;28;20020;-67
2022/08/05 04:32:34;;;;;;;10.80;6.40;;;;;;;19.32;80.83;101384.50;5093241;28;20723;-66
2022/08/05 04:34:59;;;;;;;14.73;6.03;;;;;;;19.27;80.54;101383.06;5093865;28;20059;-67
2022/08/05 04:37:25;;;;;;;10.75;6.35;;;;;;;19.39;80.83;101388.34;5093642;28;20039;-67
2022/08/05 04:39:51;;;;;;;10.98;6.50;;;;;;;19.29;80.51;101399.09;5093188;28;20032;-67
2022/08/05 04:42:17;;;;;;;12.40;6.63;;;;;;;19.27;80.68;101403.81;5093931;28;20027;-67
2022/08/05 04:44:42;;;;;;;12.77;6.68;;;;;;;19.19;80.69;101403.66;5092194;28;20105;-67
2022/08/05 04:47:08;;;;;;;11.82;6.53;;;;;;;19.15;81.13;101396.81;5090500;28;20115;-68
2022/08/05 04:49:34;;;;;;;11.13;6.78;;;;;;;19.30;81.79;101400.84;5076164;28;20059;-67
2022/08/05 04:52:02;;;;;;;11.10;6.93;;;;;;;19.30;79.85;101400.84;5091766;28;20024;-67
2022/08/05 04:54:27;;;;;;;9.55;5.95;;;;;;;19.27;80.16;101393.88;5089889;28;20039;-67
2022/08/05 04:56:57;;;;;;;8.88;5.47;;;;;;;19.35;79.82;101405.78;5072359;28;20061;-67
2022/08/05 04:59:25;;;;;;;11.00;6.10;;;;;;;19.30;80.95;101403.53;5092652;28;20185;-67
2022/08/05 05:01:51;;;;;;;10.30;6.80;;;;;;;19.32;81.20;101408.75;5091561;28;20024;-68
2022/08/05 05:04:19;;;;;;;15.35;6.45;;;;;;;19.30;80.66;101408.91;5089266;28;20055;-67
2022/08/05 05:06:45;;;;;;;16.67;7.93;;;;;;;19.09;80.18;101397.38;5090919;28;20024;-67
2022/08/05 05:09:12;;;;;;;12.65;6.07;;;;;;;19.28;79.64;101406.34;5089663;28;20052;-67
2022/08/05 05:11:37;;;;;;;13.85;6.10;;;;;;;19.25;80.89;101412.03;5090658;28;20024;-68
2022/08/05 05:14:02;;;;;;;10.18;6.25;;;;;;;19.42;80.03;101412.34;5075034;28;20020;-67
2022/08/05 05:16:28;;;;;;;15.13;6.22;;;;;;;19.48;79.14;101403.69;5093138;28;20051;-67
2022/08/05 05:18:54;;;;;;;13.90;5.78;;;;;;;19.53;78.24;101404.13;5093839;28;20016;-68
2022/08/05 05:21:19;;;;;;;10.52;5.18;;;;;;;19.55;78.58;101406.66;5090977;28;20039;-67
2022/08/05 05:23:44;;;;;;;11.68;6.10;;;;;;;19.61;77.64;101409.63;5092313;28;20031;-68
2022/08/05 05:26:10;;;;;;;10.93;5.25;;;;;;;19.53;77.51;101414.91;5072459;28;20403;-67
2022/08/05 05:28:38;;;;;;;12.02;5.38;;;;;;;19.52;78.12;101419.44;5073867;28;20123;-68
2022/08/05 05:31:04;;;;;;;10.40;5.38;;;;;;;19.40;78.53;101423.25;5091688;28;20086;-69
2022/08/05 05:33:30;;;;;;;11.55;5.28;;;;;;;19.47;79.05;101426.25;5073173;28;20055;-68
2022/08/05 05:35:58;;;;;;;15.38;5.88;;;;;;;19.50;78.72;101426.84;5089942;28;20039;-69
2022/08/05 05:38:24;;;;;;;8.53;5.20;;;;;;;19.54;78.37;101430.09;5090734;28;20024;-68
2022/08/05 05:40:49;;;;;;;14.50;5.70;;;;;;;19.43;78.75;101438.31;5092313;28;20020;-69
2022/08/05 05:43:15;;;;;;;11.60;5.60;;;;;;;19.55;78.22;101431.78;5103235;28;20028;-68
2022/08/05 05:45:42;;;;;;;13.15;5.32;;;;;;;19.56;77.73;101435.34;5084552;28;20464;-68
2022/08/05 05:48:09;;;;;;;10.43;6.00;;;;;;;19.52;78.82;101441.03;5099754;28;20027;-68
2022/08/05 05:50:35;;;;;;;11.25;5.57;;;;;;;19.47;78.69;101445.13;5094125;28;20493;-69
2022/08/05 05:53:01;;;;;;;11.38;5.38;;;;;;;19.47;79.21;101446.00;5088585;28;20023;-69
2022/08/05 05:55:26;;;;;;;12.82;5.60;;;;;;;19.44;79.20;101454.38;5090791;28;20119;-69
2022/08/05 05:57:52;;;;;;;10.73;5.05;;;;;;;19.33;79.32;101445.56;5074646;28;20474;-68
2022/08/05 06:00:20;;;;;;;12.18;5.18;;;;;;;19.23;79.75;101459.84;5092804;28;20042;-68
2022/08/05 06:02:46;;;;;;;14.45;5.47;;;;;;;19.11;80.29;101457.41;5094288;28;20027;-68
2022/08/05 06:05:13;;;;;;;9.73;4.88;;;;;;;19.22;79.55;101457.31;5090851;28;20495;-68
2022/08/05 06:07:39;;;;;;;12.93;5.43;;;;;;;19.10;80.48;101459.25;5089214;28;20073;-68
2022/08/05 06:10:08;;;;;;;10.82;4.93;;;;;;;19.04;80.49;101449.88;5090611;28;20417;-68
2022/08/05 06:12:34;;;;;;;11.57;5.25;;;;;;;19.04;81.09;101459.81;5090596;28;20032;-69
2022/08/05 06:15:01;;;;;;;10.65;4.60;;;;;;;19.02;80.46;101453.69;5092031;28;20051;-68
2022/08/05 06:17:26;;;;;;;9.93;4.78;;;;;;;19.15;80.06;101456.13;5093343;28;20519;-68
2022/08/05 06:19:52;;;;;;;12.65;5.30;;;;;;;19.19;80.41;101453.03;5071473;28;20103;-68
2022/08/05 06:22:29;;;;;;;9.00;4.47;;;;;;;19.05;80.11;101445.31;5091075;28;20051;-68
2022/08/05 06:24:55;;;;;;;11.45;4.55;;;;;;;19.19;79.90;101460.28;5089750;28;20120;-68
2022/08/05 06:27:20;;;;;;;12.55;4.50;;;;;;;19.20;79.64;101459.28;5090160;28;20441;-68
2022/08/05 06:29:46;;;;;;;8.18;4.25;;;;;;;19.21;79.45;101466.41;5089928;28;20028;-68
2022/08/05 06:32:12;;;;;;;10.20;4.07;;;;;;;19.44;78.42;101464.28;5087867;28;20040;-68
2022/08/05 06:34:37;;;;;;;9.85;4.70;;;;;;;19.69;78.04;101469.19;5091271;28;20028;-68
2022/08/05 06:37:03;;;;;;;8.70;4.50;;;;;;;19.76;76.99;101468.63;5093994;28;20028;-68
2022/08/05 06:39:29;;;;;;;8.80;3.92;;;;;;;19.81;76.02;101464.50;5071879;28;20119;-69
2022/08/05 06:42:02;;;;;;;9.25;4.60;;;;;;;19.63;77.10;101474.28;5091232;28;20103;-68
2022/08/05 06:44:31;;;;;;;13.40;4.88;;;;;;;19.51;78.16;101469.00;5090513;28;20483;-68
2022/08/05 06:47:14;;;;;;;11.63;4.85;;;;;;;19.51;77.86;101485.19;5049090;28;20472;-69
2022/08/05 06:49:40;;;;;;;8.80;4.47;;;;;;;19.46;78.56;101500.94;5048555;28;20061;-68
2022/08/05 06:52:06;;;;;;;10.57;4.68;;;;;;;19.32;78.77;101501.31;5030345;28;20033;-68
2022/08/05 06:54:33;;;;;;;11.50;4.95;;;;;;;19.36;79.31;101508.19;5045833;28;20109;-67
2022/08/05 06:56:59;;;;;;;9.85;4.80;;;;;;;19.47;78.82;101504.47;5046409;28;20044;-65
2022/08/05 06:59:25;;;;;;;8.90;4.18;;;;;;;19.60;78.31;101504.25;5047384;28;20020;-65
2022/08/05 07:01:50;;;;;;;10.07;4.95;;;;;;;19.61;78.68;101514.88;5047971;28;20480;-66
2022/08/05 07:04:15;;;;;;;8.45;4.43;;;;;;;19.63;78.09;101514.75;5047587;28;20071;-65
2022/08/05 07:06:42;;;;;;;10.07;4.93;;;;;;;19.54;77.27;101511.06;5048900;28;20102;-65
2022/08/05 07:09:09;;;;;;;10.13;4.20;;;;;;;19.54;78.43;101504.81;5048044;28;20523;-65
2022/08/05 07:11:36;;;;;;;9.70;4.65;;;;;;;19.63;77.68;101515.63;5047636;28;20045;-65
2022/08/05 07:16:48;;;;;;;9.13;4.45;;;;;;;19.66;77.87;101515.38;5046865;28;20075;-66
2022/08/05 07:19:16;;;;;;;9.10;4.28;;;;;;;19.79;76.92;101525.03;5087591;28;20437;-65
2022/08/05 07:21:43;;;;;;;10.52;4.40;;;;;;;20.00;76.01;101520.38;5090818;28;20443;-65
2022/08/05 07:24:08;;;;;;;9.48;4.40;;;;;;;20.19;75.80;101517.66;5090592;28;20471;-66
2022/08/05 07:26:36;;;;;;;8.20;3.80;;;;;;;20.41;75.71;101530.03;5086590;28;20161;-66
2022/08/05 07:29:01;;;;;;;10.55;4.20;;;;;;;20.54;73.87;101532.44;5091814;28;20502;-66
2022/08/05 07:31:27;;;;;;;8.43;3.63;;;;;;;20.68;72.59;101541.09;5088109;28;20060;-66
2022/08/05 07:33:52;;;;;;;11.90;4.28;;;;;;;20.72;71.99;101540.66;5085604;28;20378;-66
2022/08/05 07:36:20;;;;;;;9.95;3.40;;;;;;;20.80;71.88;101548.91;5090932;28;20109;-66
2022/08/05 07:38:45;;;;;;;7.60;4.03;;;;;;;20.84;71.72;101544.06;5089212;28;20024;-65
2022/08/05 07:41:16;;;;;;;9.32;3.35;;;;;;;20.80;71.64;101553.47;5091089;28;20047;-66
2022/08/05 07:43:41;;;;;;;10.77;3.65;;;;;;;20.74;70.92;101556.75;5089216;28;20052;-65
2022/08/05 07:46:07;;;;;;;15.32;3.40;;;;;;;20.75;70.24;101548.47;5088844;28;20062;-66
2022/08/05 07:48:36;;;;;;;5.93;3.17;;;;;;;20.71;70.35;101559.75;5089138;28;20028;-66
2022/08/05 07:51:01;;;;;;;9.02;3.45;;;;;;;20.73;70.76;101558.59;5092250;28;20032;-66
2022/08/05 07:53:27;;;;;;;8.23;3.10;;;;;;;20.72;69.38;101561.44;5088187;28;20034;-66
2022/08/05 07:55:52;;;;;;;7.22;3.08;;;;;;;20.78;69.36;101559.00;5090514;28;20068;-65
2022/08/05 07:58:18;;;;;;;9.75;3.38;;;;;;;20.91;69.35;101560.53;5073517;28;20028;-65
2022/08/05 08:00:43;;;;;;;6.88;3.05;;;;;;;20.89;68.62;101558.00;5090180;28;20475;-66
2022/08/05 08:03:10;;;;;;;5.97;2.70;;;;;;;20.82;68.74;101567.66;5098353;28;20028;-66
2022/08/05 08:05:41;;;;;;;7.63;2.90;;;;;;;20.76;68.10;101554.75;5100687;28;20399;-66
2022/08/05 08:08:06;;;;;;;7.00;3.17;;;;;;;20.83;67.69;101564.00;5093688;28;20104;-66
2022/08/05 08:10:32;;;;;;;6.05;3.13;;;;;;;20.90;67.91;101570.50;5092992;28;20233;-66
2022/08/05 08:12:58;;;;;;;6.05;2.72;;;;;;;21.02;67.15;101573.88;5091761;28;20115;-67
2022/08/05 08:15:23;;;;;;;8.13;2.83;;;;;;;21.08;65.61;101566.03;5095643;28;20070;-66
2022/08/05 08:17:49;;;;;;;9.60;3.30;;;;;;;21.36;65.60;101576.94;5075115;28;20047;-66
2022/08/05 08:20:14;;;;;;;10.13;2.60;;;;;;;21.58;64.66;101588.34;5092451;28;20368;-65
2022/08/05 08:22:39;;;;;;;7.07;2.45;;;;;;;21.38;63.27;101591.16;5074050;28;20031;-64
2022/08/05 08:25:06;;;;;;;6.13;2.65;;;;;;;21.19;63.80;101600.16;5095461;28;20028;-64
2022/08/05 08:27:34;;;;;;;6.53;2.65;;;;;;;21.07;64.87;101595.94;5093650;28;20111;-64
2022/08/05 08:30:03;;;;;;;7.45;2.60;;;;;;;21.02;63.63;101599.06;5092979;28;20020;-64
2022/08/05 08:32:35;;;;;;;5.47;2.45;;;;;;;21.08;64.21;101606.59;5092616;28;20032;-64
2022/08/05 08:35:00;;;;;;;5.80;2.65;;;;;;;21.06;65.25;101610.44;5091710;28;20020;-64
2022/08/05 08:37:26;;;;;;;5.72;2.50;;;;;;;21.09;65.00;101608.31;5092690;28;20026;-64
2022/08/05 08:39:51;;;;;;;7.75;2.25;;;;;;;21.04;64.35;101604.34;5095233;28;20041;-64
2022/08/05 08:42:17;;;;;;;42.30;4.00;;;;;;;20.95;64.59;101607.94;5096560;28;20283;-64
2022/08/05 08:44:44;;;;;;;10.27;2.78;;;;;;;20.93;65.10;101618.88;5090446;28;20372;-63
2022/08/05 08:47:13;;;;;;;9.20;2.40;;;;;;;20.91;65.66;101618.19;5094653;28;20089;-63
2022/08/05 08:49:43;;;;;;;5.75;2.28;;;;;;;21.00;65.24;101628.16;5092606;28;20035;-64
2022/08/05 08:52:16;;;;;;;7.25;2.38;;;;;;;21.04;64.36;101621.44;5092243;28;20483;-60
2022/08/05 08:54:42;;;;;;;7.20;2.53;;;;;;;21.17;64.35;101626.50;5092822;28;20036;-63
2022/08/05 08:57:08;;;;;;;7.88;2.42;;;;;;;21.37;63.95;101637.31;5090496;28;20031;-63
2022/08/05 08:59:35;;;;;;;5.88;2.10;;;;;;;21.45;63.88;101635.56;5093123;28;20383;-64
2022/08/05 09:02:03;;;;;;;5.32;2.00;;;;;;;21.50;64.31;101643.25;5090465;28;20102;-64
2022/08/05 09:04:32;;;;;;;4.95;2.50;;;;;;;21.66;63.85;101643.47;5092540;28;20044;-63
2022/08/05 09:06:58;;;;;;;6.10;2.60;;;;;;;21.62;64.79;101643.91;5090340;28;20491;-64
2022/08/05 09:09:24;;;;;;;4.68;2.00;;;;;;;21.66;64.19;101648.88;5094038;28;20097;-61
2022/08/05 09:11:50;;;;;;;5.72;2.35;;;;;;;21.64;64.02;101650.88;5092677;28;20031;-61
2022/08/05 09:14:18;;;;;;;5.20;2.22;;;;;;;21.72;63.90;101653.69;5073583;28;20475;-61
2022/08/05 09:16:44;;;;;;;5.40;2.30;;;;;;;21.80;62.79;101657.53;5073302;28;20032;-61
2022/08/05 09:19:10;;;;;;;6.72;2.30;;;;;;;21.80;62.62;101646.69;5091617;28;20381;-61
2022/08/05 09:21:35;;;;;;;4.53;1.92;;;;;;;21.95;62.13;101653.31;5097321;28;20039;-61
2022/08/05 09:24:07;;;;;;;4.82;2.33;;;;;;;21.85;62.71;101649.78;5072092;28;20043;-61
2022/08/05 09:26:33;;;;;;;7.13;2.03;;;;;;;21.63;62.41;101648.34;5088220;28;20061;-62
2022/08/05 09:29:03;;;;;;;11.00;2.30;;;;;;;21.54;62.37;101661.75;5089843;28;20031;-61
2022/08/05 09:31:29;;;;;;;6.53;2.28;;;;;;;21.39;62.54;101667.81;5090186;28;20031;-62
2022/08/05 09:33:57;;;;;;;4.28;2.25;;;;;;;21.25;62.41;101678.06;5090195;28;20463;-62
2022/08/05 09:36:23;;;;;;;5.82;2.05;;;;;;;21.37;62.61;101673.34;5097322;28;20098;-62
2022/08/05 09:39:04;;;;;;;6.07;1.98;;;;;;;21.55;62.78;101673.44;5111041;28;20497;-62
2022/08/05 09:41:30;;;;;;;4.55;2.25;;;;;;;21.84;61.59;101675.16;5112069;28;20393;-65
2022/08/05 09:43:55;;;;;;;4.68;1.75;;;;;;;22.05;61.26;101678.47;5080590;28;20032;-67
2022/08/05 09:46:28;;;;;;;10.45;2.20;;;;;;;22.17;59.76;101684.56;5073377;28;20043;-66
2022/08/05 09:48:54;;;;;;;5.57;1.70;;;;;;;22.35;58.58;101685.44;5084087;28;20046;-65
2022/08/05 09:51:38;;;;;;;4.20;1.90;;;;;;;22.51;58.65;101676.63;5092968;28;20065;-66
2022/08/05 09:54:07;;;;;;;5.97;1.75;;;;;;;22.60;57.17;101683.84;5088291;28;20070;-66
2022/08/05 09:56:36;;;;;;;4.70;1.60;;;;;;;22.54;55.94;101686.31;5091487;28;20080;-66
2022/08/05 09:59:04;;;;;;;5.15;1.70;;;;;;;22.42;56.58;101688.41;5089515;28;20035;-67
2022/08/05 10:01:35;;;;;;;3.78;1.80;;;;;;;22.33;56.21;101687.47;5090156;28;20020;-66
2022/08/05 10:04:05;;;;;;;3.22;1.27;;;;;;;22.19;54.42;101686.13;5087721;28;20051;-66
2022/08/05 10:06:31;;;;;;;2.00;1.15;;;;;;;22.01;52.69;101696.03;5088804;28;20027;-67
2022/08/05 10:09:14;;;;;;;2.83;1.40;;;;;;;21.78;52.58;101704.53;5094884;28;20027;-66
2022/08/05 10:11:40;;;;;;;3.53;1.38;;;;;;;21.63;53.45;101700.63;5089232;28;20067;-66
2022/08/05 10:14:27;;;;;;;4.03;1.00;;;;;;;21.73;54.62;101700.56;5090314;28;20032;-66
2022/08/05 10:16:57;;;;;;;4.43;1.50;;;;;;;21.92;53.94;101686.13;5088036;28;20027;-67
2022/08/05 10:19:24;;;;;;;1.60;1.10;;;;;;;22.32;53.79;101701.16;5090838;28;20016;-67
2022/08/05 10:21:50;;;;;;;3.78;1.20;;;;;;;22.41;53.40;101695.69;5089338;28;20620;-67
2022/08/05 10:24:18;;;;;;;2.63;1.00;;;;;;;22.50;53.14;101698.47;5089141;28;20028;-67
2022/08/05 10:26:45;;;;;;;2.25;1.30;;;;;;;22.48;52.10;101712.19;5092542;28;20031;-67
2022/08/05 10:29:10;;;;;;;3.50;1.02;;;;;;;22.47;49.85;101706.91;5095801;28;20509;-67
2022/08/05 10:31:39;;;;;;;2.70;1.20;;;;;;;22.51;50.88;101714.59;5091074;28;20120;-67
2022/08/05 10:34:08;;;;;;;;;;;;;;;22.66;51.35;101709.47;5096672;28;20020;-67
2022/08/05 10:36:35;;;;;;;;;;;;;;;22.79;50.16;101719.94;5094655;28;19938;-67
2022/08/05 10:39:36;;;;;;;5.18;1.73;;;;;;;22.74;48.34;101706.00;5090216;28;20256;-67
2022/08/05 10:42:12;;;;;;;4.22;1.20;;;;;;;22.66;47.84;101715.75;5075513;28;20036;-67
2022/08/05 10:44:38;;;;;;;2.88;1.08;;;;;;;22.68;47.80;101721.88;5089505;28;20031;-66
2022/08/05 10:47:16;;;;;;;3.30;1.08;;;;;;;22.71;48.61;101715.31;5090776;28;20023;-66
2022/08/05 10:50:14;;;;;;;6.32;1.20;;;;;;;22.67;48.21;101724.75;5088657;28;20540;-65
2022/08/05 10:52:43;;;;;;;1.15;1.00;;;;;;;22.65;47.40;101730.34;5072004;28;20455;-67
2022/08/05 10:55:12;;;;;;;2.67;0.90;;;;;;;22.71;48.17;101727.97;5088737;28;20475;-66
2022/08/05 10:57:40;;;;;;;1.58;0.95;;;;;;;22.72;46.92;101727.84;5090034;28;20051;-65
2022/08/05 11:00:17;;;;;;;2.10;1.00;;;;;;;22.74;46.92;101744.81;5087529;28;20490;-67
2022/08/05 11:02:58;;;;;;;2.88;1.10;;;;;;;22.66;45.71;101740.16;5088910;28;20034;-67
2022/08/05 11:05:23;;;;;;;2.20;0.95;;;;;;;22.67;46.08;101730.16;5089631;28;20056;-67
2022/08/05 11:08:03;;;;;;;2.72;1.17;;;;;;;22.67;46.16;101746.44;5088439;28;20499;-67
2022/08/05 11:10:30;;;;;;;3.28;1.00;;;;;;;22.66;44.88;101740.16;5088075;28;20060;-67
2022/08/05 11:12:57;;;;;;;1.95;0.70;;;;;;;22.62;44.27;101746.91;5087146;28;20099;-62
2022/08/05 11:15:29;;;;;;;3.80;0.80;;;;;;;22.63;45.17;101748.59;5085963;28;20020;-62
2022/08/05 11:18:27;;;;;;;1.88;0.80;;;;;;;22.67;44.97;101744.56;5091000;28;20028;-62
2022/08/05 11:20:53;;;;;;;1.58;0.90;;;;;;;22.65;42.36;101748.47;5085217;28;20035;-62
2022/08/05 11:23:42;;;;;;;3.72;1.10;;;;;;;22.79;43.23;101750.63;5090884;28;20036;-64
2022/08/05 11:26:21;;;;;;;5.40;1.15;;;;;;;22.88;43.35;101756.97;5091046;28;20484;-67
2022/08/05 11:28:50;;;;;;;1.00;0.90;;;;;;;22.87;43.18;101758.84;5090684;28;20483;-67
2022/08/05 11:31:17;;;;;;;17.88;3.50;;;;;;;22.93;44.57;101754.66;5088523;28;20027;-67